Time;durP1;ratioP1;P1;durP2;ratioP2;P2;SDS_P1;SDS_P2;PMS_P1;PMS_P2;Temp;Humidity;BMP_temperature;BMP_pressure;BME280_temperature;BME280_humidity;BME280_pressure;Samples;Min_cycle;Max_cycle;Signal;HPM_P1;HPM_P2
2023/09/07 00:00:41;;;;;;;10.32;9.40;;;;;;;20.72;76.28;95491.75;5063834;28;20230;-65
2023/09/07 00:03:09;;;;;;;10.23;8.43;;;;;;;20.70;76.74;95484.09;5062952;28;20285;-64
2023/09/07 00:05:36;;;;;;;9.77;8.88;;;;;;;20.70;76.14;95486.69;5064628;28;20195;-65
2023/09/07 00:08:03;;;;;;;9.20;8.50;;;;;;;20.66;76.25;95484.41;5064349;28;20585;-65
2023/09/07 00:10:30;;;;;;;9.52;8.43;;;;;;;20.58;75.12;95484.06;5064383;28;20210;-64
2023/09/07 00:12:57;;;;;;;15.65;8.77;;;;;;;20.60;76.03;95482.22;5063801;28;20207;-65
2023/09/07 00:15:26;;;;;;;10.15;9.18;;;;;;;20.69;75.75;95482.44;5064972;28;20228;-65
2023/09/07 00:17:52;;;;;;;10.27;8.00;;;;;;;20.67;75.33;95478.31;5064282;28;20234;-65
2023/09/07 00:20:21;;;;;;;9.90;8.65;;;;;;;20.70;75.14;95486.69;5064487;28;20202;-65
2023/09/07 00:22:48;;;;;;;9.18;8.48;;;;;;;20.71;75.14;95484.94;5063576;28;20294;-65
2023/09/07 00:25:14;;;;;;;9.80;9.00;;;;;;;20.59;75.22;95485.72;5065022;28;20260;-66
2023/09/07 00:27:41;;;;;;;8.82;7.85;;;;;;;20.55;75.16;95485.09;5063087;28;20191;-65
2023/09/07 00:30:09;;;;;;;11.25;8.43;;;;;;;20.62;75.44;95485.53;5063253;28;20685;-64
2023/09/07 00:32:36;;;;;;;9.70;8.88;;;;;;;20.61;75.76;95489.03;5061580;28;20518;-65
2023/09/07 00:35:04;;;;;;;9.48;8.68;;;;;;;20.53;76.22;95487.00;5062239;28;20260;-65
2023/09/07 00:37:32;;;;;;;13.02;9.15;;;;;;;20.32;76.89;95463.34;5063036;28;20233;-65
2023/09/07 00:39:58;;;;;;;11.75;10.50;;;;;;;20.43;77.44;95485.09;5062589;28;20256;-64
2023/09/07 00:42:25;;;;;;;15.05;10.55;;;;;;;20.28;78.25;95472.25;5064886;28;20226;-64
2023/09/07 00:44:52;;;;;;;13.55;10.30;;;;;;;20.32;78.75;95484.00;5065859;28;20727;-64
2023/09/07 00:47:18;;;;;;;11.52;10.45;;;;;;;20.31;79.12;95487.50;5058672;28;20206;-64
2023/09/07 00:49:45;;;;;;;11.55;10.55;;;;;;;20.36;79.17;95482.88;5067832;28;20205;-64
2023/09/07 00:52:12;;;;;;;10.93;10.02;;;;;;;20.25;79.61;95469.84;5067204;28;20226;-64
2023/09/07 00:54:41;;;;;;;10.73;9.93;;;;;;;20.28;79.74;95484.31;5068067;28;20263;-63
2023/09/07 00:57:08;;;;;;;10.98;9.85;;;;;;;20.14;80.19;95485.19;5068122;28;20314;-63
2023/09/07 00:59:35;;;;;;;10.77;9.77;;;;;;;20.14;80.54;95482.63;5068027;28;20303;-63
2023/09/07 01:02:02;;;;;;;12.52;10.32;;;;;;;20.11;80.62;95482.81;5067997;28;20303;-63
2023/09/07 01:04:30;;;;;;;11.43;9.20;;;;;;;20.15;80.31;95483.44;5067571;28;20271;-64
2023/09/07 01:07:01;;;;;;;12.07;10.20;;;;;;;20.15;80.51;95488.59;5067894;28;20248;-63
2023/09/07 01:09:31;;;;;;;10.70;9.90;;;;;;;20.06;80.77;95487.44;5066687;28;20195;-65
2023/09/07 01:11:59;;;;;;;12.00;10.02;;;;;;;20.12;80.94;95479.31;5067781;28;20198;-64
2023/09/07 01:14:26;;;;;;;12.75;11.25;;;;;;;20.09;81.54;95476.91;5066972;28;20631;-63
2023/09/07 01:16:53;;;;;;;11.65;10.60;;;;;;;20.03;81.98;95480.75;5067211;28;20226;-63
2023/09/07 01:19:20;;;;;;;12.93;11.45;;;;;;;20.01;82.26;95481.75;5067540;28;20246;-64
2023/09/07 01:21:49;;;;;;;12.73;11.35;;;;;;;19.98;82.99;95481.97;5066818;28;20371;-64
2023/09/07 01:24:17;;;;;;;12.68;11.68;;;;;;;19.90;83.39;95474.69;5067591;28;20218;-64
2023/09/07 01:26:49;;;;;;;13.48;12.13;;;;;;;19.89;83.86;95482.53;5067285;28;20260;-65
2023/09/07 01:29:16;;;;;;;18.13;13.20;;;;;;;19.85;84.60;95473.31;5067735;28;20206;-63
2023/09/07 01:31:43;;;;;;;12.82;11.13;;;;;;;19.83;84.90;95482.91;5067420;28;20198;-64
2023/09/07 01:34:10;;;;;;;14.52;13.05;;;;;;;19.75;85.14;95488.56;5067204;28;20738;-64
2023/09/07 01:36:37;;;;;;;14.02;12.00;;;;;;;19.76;85.44;95484.25;5067120;28;20226;-64
2023/09/07 01:39:06;;;;;;;15.98;13.50;;;;;;;19.72;85.90;95482.78;5067423;28;20311;-64
2023/09/07 01:41:33;;;;;;;17.38;13.30;;;;;;;19.71;86.01;95487.09;5066577;28;20743;-63
2023/09/07 01:44:00;;;;;;;17.40;14.75;;;;;;;19.66;85.89;95479.66;5067202;28;20221;-65
2023/09/07 01:46:26;;;;;;;25.10;19.80;;;;;;;19.61;86.57;95486.84;5065602;28;20688;-64
2023/09/07 01:48:53;;;;;;;32.53;24.67;;;;;;;19.65;86.30;95483.16;5066877;28;20232;-63
2023/09/07 01:51:20;;;;;;;216.18;109.25;;;;;;;19.69;86.07;95487.19;5067395;28;20234;-63
2023/09/07 01:53:48;;;;;;;61.10;34.80;;;;;;;19.69;86.14;95484.63;5066639;28;20258;-63
2023/09/07 01:56:16;;;;;;;136.07;68.88;;;;;;;19.69;86.09;95494.94;5065703;28;20206;-64
2023/09/07 01:58:43;;;;;;;35.90;23.35;;;;;;;19.60;86.28;95490.34;5067067;28;20598;-65
2023/09/07 02:01:21;;;;;;;35.15;22.00;;;;;;;19.53;86.24;95468.47;5064961;28;20194;-64
2023/09/07 02:03:48;;;;;;;22.42;17.17;;;;;;;19.68;86.40;95482.97;5066084;28;20202;-64
2023/09/07 02:06:15;;;;;;;30.45;18.77;;;;;;;19.72;86.15;95487.94;5066385;28;20208;-64
2023/09/07 02:08:42;;;;;;;16.23;13.68;;;;;;;19.61;86.55;95479.09;5066610;28;20205;-63
2023/09/07 02:11:09;;;;;;;18.52;15.32;;;;;;;19.60;86.63;95490.34;5066715;28;20706;-63
2023/09/07 02:13:37;;;;;;;14.52;13.20;;;;;;;19.55;87.01;95476.91;5066257;28;20237;-63
2023/09/07 02:16:05;;;;;;;14.77;12.93;;;;;;;19.49;87.58;95482.44;5066513;28;20244;-65
2023/09/07 02:18:32;;;;;;;15.10;13.60;;;;;;;19.47;87.68;95484.28;5065728;28;20238;-63
2023/09/07 02:21:02;;;;;;;13.93;12.65;;;;;;;19.53;87.35;95483.94;5067247;28;20230;-64
2023/09/07 02:23:29;;;;;;;14.13;12.68;;;;;;;19.49;87.64;95490.16;5066294;28;20225;-64
2023/09/07 02:25:55;;;;;;;15.45;13.85;;;;;;;19.46;87.63;95485.19;5066152;28;20210;-65
2023/09/07 02:28:22;;;;;;;14.98;13.25;;;;;;;19.47;88.12;95499.75;5065274;28;20225;-64
2023/09/07 02:30:50;;;;;;;16.00;14.25;;;;;;;19.44;88.43;95489.63;5066183;28;20202;-65
2023/09/07 02:33:17;;;;;;;16.75;13.55;;;;;;;19.45;87.88;95480.13;5065527;28;20259;-64
2023/09/07 02:35:43;;;;;;;16.73;12.93;;;;;;;19.51;87.88;95484.94;5064113;28;20202;-64
2023/09/07 02:38:10;;;;;;;15.55;13.98;;;;;;;19.48;88.33;95487.69;5063930;28;20276;-65
2023/09/07 02:40:41;;;;;;;14.73;13.30;;;;;;;19.50;87.97;95494.44;5064342;28;20913;-65
2023/09/07 02:43:08;;;;;;;15.70;14.05;;;;;;;19.43;88.75;95487.13;5064028;28;20304;-65
2023/09/07 02:45:35;;;;;;;16.85;15.13;;;;;;;19.35;89.20;95490.16;5064202;28;20230;-65
2023/09/07 02:48:03;;;;;;;16.85;14.40;;;;;;;19.28;89.28;95489.72;5063036;28;20657;-64
2023/09/07 02:51:01;;;;;;;21.55;13.82;;;;;;;19.40;88.98;95495.88;5064529;28;20222;-64
2023/09/07 02:53:28;;;;;;;15.45;14.07;;;;;;;19.38;89.22;95489.97;5063704;28;20311;-64
2023/09/07 02:55:54;;;;;;;17.05;14.05;;;;;;;19.44;88.90;95489.63;5065695;28;20260;-63
2023/09/07 02:58:21;;;;;;;15.57;14.05;;;;;;;19.46;88.76;95487.78;5064795;28;20202;-64
2023/09/07 03:00:48;;;;;;;16.35;14.70;;;;;;;19.43;88.90;95487.94;5065842;28;20256;-63
2023/09/07 03:03:16;;;;;;;18.42;15.55;;;;;;;19.31;89.70;95484.38;5065923;28;20276;-63
2023/09/07 03:05:44;;;;;;;16.38;14.77;;;;;;;19.37;89.08;95489.16;5066367;28;20273;-63
2023/09/07 03:08:12;;;;;;;16.50;14.90;;;;;;;19.39;89.36;95496.78;5065330;28;20199;-63
2023/09/07 03:10:39;;;;;;;22.00;15.23;;;;;;;19.42;88.98;95491.44;5066625;28;20217;-64
2023/09/07 03:13:06;;;;;;;16.08;14.70;;;;;;;19.50;88.53;95494.44;5065425;28;20251;-64
2023/09/07 03:15:33;;;;;;;18.08;15.07;;;;;;;19.49;88.81;95492.75;5065980;28;20297;-63
2023/09/07 03:18:00;;;;;;;18.75;15.38;;;;;;;19.44;89.10;95501.66;5064985;28;20290;-64
2023/09/07 03:20:29;;;;;;;17.40;15.60;;;;;;;19.44;89.62;95496.53;5066050;28;20596;-63
2023/09/07 03:22:57;;;;;;;19.88;16.42;;;;;;;19.48;88.96;95487.69;5065993;28;20206;-63
2023/09/07 03:25:23;;;;;;;24.40;16.52;;;;;;;19.40;89.38;95492.47;5065660;28;20226;-63
2023/09/07 03:27:50;;;;;;;17.40;15.80;;;;;;;19.36;90.33;95504.72;5065717;28;20210;-63
2023/09/07 03:30:17;;;;;;;17.48;15.68;;;;;;;19.29;90.79;95498.28;5066249;28;20209;-63
2023/09/07 03:32:44;;;;;;;18.95;15.40;;;;;;;19.39;90.65;95496.78;5065702;28;20260;-63
2023/09/07 03:35:10;;;;;;;17.23;15.52;;;;;;;19.31;90.79;95501.56;5065156;28;20658;-63
2023/09/07 03:37:38;;;;;;;17.05;15.43;;;;;;;19.15;92.03;95496.53;5065908;28;20264;-64
2023/09/07 03:40:07;;;;;;;20.17;15.57;;;;;;;19.15;92.21;95487.97;5065816;28;20230;-63
2023/09/07 03:42:33;;;;;;;18.45;14.68;;;;;;;19.09;92.76;95499.47;5066005;28;20206;-64
2023/09/07 03:45:00;;;;;;;17.35;15.70;;;;;;;19.10;93.14;95495.16;5063988;28;20617;-64
2023/09/07 03:47:28;;;;;;;17.17;15.45;;;;;;;19.10;93.24;95505.44;5066099;28;20194;-64
2023/09/07 03:49:55;;;;;;;18.20;16.42;;;;;;;19.14;93.20;95504.34;5064488;28;20688;-64
2023/09/07 03:52:24;;;;;;;21.08;15.65;;;;;;;19.08;93.58;95509.88;5065725;28;20628;-65
2023/09/07 03:54:52;;;;;;;23.52;16.00;;;;;;;19.08;93.91;95513.28;5064903;28;20210;-64
2023/09/07 03:57:19;;;;;;;17.88;16.08;;;;;;;19.10;94.41;95518.34;5065254;28;20213;-64
2023/09/07 03:59:45;;;;;;;17.88;16.13;;;;;;;19.16;94.03;95513.66;5064850;28;20330;-64
2023/09/07 04:02:13;;;;;;;24.48;17.38;;;;;;;19.12;94.59;95524.22;5066206;28;20238;-64
2023/09/07 04:04:40;;;;;;;18.00;16.40;;;;;;;19.14;94.35;95528.38;5065098;28;20763;-64
2023/09/07 04:07:06;;;;;;;18.02;15.88;;;;;;;19.01;94.74;95504.28;5065548;28;20198;-63
2023/09/07 04:09:33;;;;;;;17.63;15.63;;;;;;;19.09;94.78;95514.94;5065251;28;20198;-64
2023/09/07 04:12:03;;;;;;;17.80;15.98;;;;;;;19.10;94.64;95521.75;5065621;28;20263;-64
2023/09/07 04:14:30;;;;;;;18.33;16.65;;;;;;;19.12;95.17;95526.81;5065090;28;20203;-64
2023/09/07 04:16:56;;;;;;;16.42;14.57;;;;;;;19.06;94.71;95529.72;5067206;28;20205;-64
2023/09/07 04:19:23;;;;;;;18.15;16.55;;;;;;;19.02;95.73;95529.94;5068961;28;20379;-63
2023/09/07 04:21:50;;;;;;;21.40;16.23;;;;;;;19.01;95.20;95523.13;5069671;28;20393;-64
2023/09/07 04:24:17;;;;;;;18.10;16.40;;;;;;;18.89;96.12;95521.28;5068953;28;20315;-63
2023/09/07 04:26:44;;;;;;;19.42;16.90;;;;;;;18.87;96.67;95520.53;5069084;28;20205;-64
2023/09/07 04:29:12;;;;;;;20.13;17.13;;;;;;;18.90;96.33;95522.09;5069275;28;20198;-63
2023/09/07 04:31:39;;;;;;;21.05;18.88;;;;;;;18.97;96.74;95521.66;5069635;28;20293;-64
2023/09/07 04:34:06;;;;;;;20.90;18.83;;;;;;;18.91;96.31;95526.34;5066502;28;20676;-64
2023/09/07 04:36:33;;;;;;;19.42;17.73;;;;;;;18.86;96.54;95518.88;5067442;28;20598;-64
2023/09/07 04:38:59;;;;;;;20.23;18.42;;;;;;;18.92;96.22;95523.66;5066467;28;20272;-64
2023/09/07 04:41:26;;;;;;;19.42;17.48;;;;;;;19.03;96.14;95536.75;5067772;28;20275;-64
2023/09/07 04:43:53;;;;;;;20.00;17.83;;;;;;;18.98;96.18;95538.78;5067076;28;20244;-65
2023/09/07 04:46:23;;;;;;;19.73;17.73;;;;;;;18.81;96.16;95508.00;5066921;28;20255;-65
2023/09/07 04:48:50;;;;;;;19.30;16.95;;;;;;;18.93;96.08;95530.47;5066383;28;20248;-65
2023/09/07 04:51:17;;;;;;;20.80;18.42;;;;;;;18.92;96.37;95538.28;5067436;28;20267;-65
2023/09/07 04:53:43;;;;;;;21.25;18.00;;;;;;;19.01;95.79;95535.19;5066844;28;20214;-65
2023/09/07 04:56:10;;;;;;;20.60;18.02;;;;;;;19.06;95.51;95547.78;5066967;28;20202;-64
2023/09/07 04:58:37;;;;;;;18.98;17.05;;;;;;;18.96;95.42;95545.75;5068587;28;20194;-65
2023/09/07 05:01:04;;;;;;;20.88;18.38;;;;;;;18.95;95.44;95532.97;5068716;28;20258;-63
2023/09/07 05:03:33;;;;;;;20.08;17.95;;;;;;;19.10;94.81;95547.50;5068689;28;20205;-65
2023/09/07 05:06:00;;;;;;;23.83;18.05;;;;;;;18.95;94.80;95513.19;5066807;28;20293;-64
2023/09/07 05:08:27;;;;;;;18.67;17.00;;;;;;;19.15;94.55;95534.34;5068269;28;20226;-65
2023/09/07 05:10:56;;;;;;;23.75;18.63;;;;;;;19.18;94.65;95540.16;5068106;28;20260;-64
2023/09/07 05:13:23;;;;;;;20.95;17.35;;;;;;;19.31;93.94;95541.06;5068397;28;20195;-63
2023/09/07 05:15:50;;;;;;;18.80;16.98;;;;;;;19.44;93.25;95541.16;5067640;28;20263;-65
2023/09/07 05:18:17;;;;;;;19.40;17.70;;;;;;;19.38;94.18;95539.78;5068031;28;20199;-64
2023/09/07 05:20:48;;;;;;;20.05;17.75;;;;;;;19.38;94.55;95547.50;5068345;28;20666;-65
2023/09/07 05:23:15;;;;;;;18.05;16.10;;;;;;;19.57;93.47;95552.41;5068595;28;20201;-64
2023/09/07 05:25:45;;;;;;;18.10;16.30;;;;;;;19.62;92.57;95550.38;5067642;28;20199;-64
2023/09/07 05:28:14;;;;;;;20.58;17.13;;;;;;;19.51;93.31;95550.22;5067451;28;20210;-64
2023/09/07 05:30:41;;;;;;;20.30;17.13;;;;;;;19.50;93.27;95551.13;5068211;28;20261;-64
2023/09/07 05:33:09;;;;;;;19.38;17.45;;;;;;;19.55;92.90;95553.44;5067600;28;20285;-64
2023/09/07 05:35:35;;;;;;;18.80;16.90;;;;;;;19.51;92.75;95547.66;5067163;28;20315;-64
2023/09/07 05:38:04;;;;;;;20.00;17.00;;;;;;;19.57;92.36;95554.97;5067444;28;20206;-64
2023/09/07 05:40:35;;;;;;;23.33;16.98;;;;;;;19.55;91.94;95546.50;5067952;28;20253;-64
2023/09/07 05:43:01;;;;;;;23.20;16.52;;;;;;;19.68;91.29;95544.84;5067395;28;20267;-65
2023/09/07 05:45:28;;;;;;;23.88;18.05;;;;;;;19.75;91.71;95558.22;5067743;28;20198;-66
2023/09/07 05:47:55;;;;;;;25.80;19.65;;;;;;;19.62;91.54;95554.72;5067374;28;20332;-64
2023/09/07 05:50:22;;;;;;;22.02;17.58;;;;;;;19.65;91.18;95554.53;5067576;28;20229;-64
2023/09/07 05:52:48;;;;;;;22.85;17.17;;;;;;;19.54;90.76;95532.00;5067296;28;20234;-65
2023/09/07 05:55:16;;;;;;;20.67;18.13;;;;;;;19.66;90.58;95551.03;5067152;28;20625;-64
2023/09/07 05:57:43;;;;;;;25.63;17.80;;;;;;;19.83;89.83;95547.38;5066983;28;20637;-65
2023/09/07 06:00:11;;;;;;;20.40;17.02;;;;;;;19.91;89.78;95551.16;5067529;28;20250;-64
2023/09/07 06:02:38;;;;;;;21.17;17.90;;;;;;;20.03;89.26;95552.16;5066911;28;20206;-65
2023/09/07 06:05:05;;;;;;;25.00;18.35;;;;;;;20.02;89.03;95553.91;5066823;28;20809;-63
2023/09/07 06:07:31;;;;;;;19.50;17.40;;;;;;;20.11;88.91;95552.47;5067108;28;20213;-65
2023/09/07 06:09:58;;;;;;;19.02;17.23;;;;;;;20.15;88.37;95568.59;5065312;28;20218;-64
2023/09/07 06:12:26;;;;;;;19.35;17.23;;;;;;;20.33;87.74;95563.09;5067505;28;20241;-64
2023/09/07 06:14:53;;;;;;;16.80;14.95;;;;;;;20.78;86.01;95558.50;5067511;28;20593;-63
2023/09/07 06:17:20;;;;;;;17.05;14.98;;;;;;;21.48;81.12;95561.56;5067306;28;20251;-63
2023/09/07 06:19:47;;;;;;;19.35;14.68;;;;;;;22.21;78.19;95564.19;5066180;28;20219;-64
2023/09/07 06:22:13;;;;;;;17.70;13.25;;;;;;;23.05;74.48;95564.03;5067256;28;20198;-65
2023/09/07 06:24:41;;;;;;;14.48;13.07;;;;;;;24.22;68.67;95553.31;5066976;28;20234;-65
2023/09/07 06:27:07;;;;;;;14.75;13.02;;;;;;;25.60;64.58;95560.06;5067054;28;20202;-64
2023/09/07 06:29:35;;;;;;;17.50;12.48;;;;;;;26.77;59.15;95564.59;5067310;28;21420;-65
2023/09/07 06:32:02;;;;;;;11.93;10.85;;;;;;;27.00;57.28;95557.34;5065925;28;20687;-65
2023/09/07 06:34:28;;;;;;;12.90;11.63;;;;;;;27.86;55.23;95555.47;5064925;28;20687;-65
2023/09/07 06:36:55;;;;;;;12.32;11.13;;;;;;;28.61;51.81;95562.19;5064741;28;20206;-65
2023/09/07 06:39:22;;;;;;;13.95;9.70;;;;;;;28.00;51.71;95563.63;5063992;28;20287;-66
2023/09/07 06:41:49;;;;;;;10.80;9.80;;;;;;;28.08;51.81;95571.56;5064351;28;20210;-66
2023/09/07 06:44:15;;;;;;;10.40;9.45;;;;;;;29.04;48.86;95567.47;5064600;28;20276;-64
2023/09/07 06:46:44;;;;;;;10.07;9.38;;;;;;;30.49;45.69;95562.31;5065637;28;20519;-65
2023/09/07 06:49:10;;;;;;;10.52;8.73;;;;;;;31.18;43.47;95564.56;5064806;28;20206;-66
2023/09/07 06:51:37;;;;;;;11.68;8.65;;;;;;;29.87;45.58;95572.25;5063893;28;20568;-66
2023/09/07 06:54:04;;;;;;;9.30;8.60;;;;;;;30.94;44.51;95565.34;5064259;28;20254;-64
2023/09/07 06:56:33;;;;;;;9.95;9.07;;;;;;;30.91;43.12;95573.56;5064249;28;20210;-66
2023/09/07 06:59:00;;;;;;;10.20;8.38;;;;;;;31.03;43.13;95563.53;5065863;28;20213;-63
2023/09/07 07:01:26;;;;;;;8.38;7.32;;;;;;;30.63;43.35;95559.09;5066136;28;20312;-65
2023/09/07 07:03:56;;;;;;;9.07;8.43;;;;;;;29.12;45.83;95566.72;5066191;28;20202;-65
2023/09/07 07:06:23;;;;;;;11.57;8.45;;;;;;;27.10;51.25;95558.16;5065967;28;20195;-65
2023/09/07 07:08:50;;;;;;;10.77;9.55;;;;;;;25.94;55.01;95568.47;5065891;28;20753;-64
2023/09/07 07:11:16;;;;;;;10.55;9.13;;;;;;;26.05;55.35;95560.53;5066061;28;20195;-65
2023/09/07 07:13:43;;;;;;;9.20;8.32;;;;;;;26.87;52.76;95568.03;5066391;28;20202;-65
2023/09/07 07:16:10;;;;;;;9.70;8.80;;;;;;;26.40;53.17;95561.88;5066411;28;20198;-65
2023/09/07 07:18:36;;;;;;;9.93;8.80;;;;;;;25.67;54.63;95568.22;5065719;28;20379;-64
2023/09/07 07:21:04;;;;;;;10.52;9.07;;;;;;;24.90;57.51;95567.72;5065260;28;20608;-65
2023/09/07 07:23:31;;;;;;;12.82;8.68;;;;;;;26.09;54.47;95571.50;5065040;28;20268;-65
2023/09/07 07:25:58;;;;;;;10.13;9.23;;;;;;;27.55;50.61;95573.16;5065603;28;20205;-66
2023/09/07 07:28:25;;;;;;;9.25;8.55;;;;;;;29.32;45.63;95572.59;5065466;28;20248;-65
2023/09/07 07:30:52;;;;;;;8.90;8.15;;;;;;;29.60;43.96;95566.25;5064723;28;20680;-63
2023/09/07 07:33:19;;;;;;;10.65;8.82;;;;;;;27.49;49.18;95579.75;5066044;28;20206;-64
2023/09/07 07:35:45;;;;;;;8.45;7.78;;;;;;;26.79;51.37;95570.50;5065112;28;20248;-65
2023/09/07 07:38:14;;;;;;;8.73;8.13;;;;;;;27.71;48.83;95569.00;5065632;28;20255;-65
2023/09/07 07:40:42;;;;;;;12.07;7.95;;;;;;;30.14;43.04;95585.19;5065000;28;20257;-65
2023/09/07 07:43:10;;;;;;;8.50;7.38;;;;;;;32.09;38.13;95569.44;5065608;28;20206;-66
2023/09/07 07:45:38;;;;;;;9.30;7.38;;;;;;;32.55;36.35;95572.97;5065611;28;20691;-64
2023/09/07 07:48:07;;;;;;;7.82;7.22;;;;;;;30.90;39.16;95576.34;5065706;28;20293;-65
2023/09/07 07:50:37;;;;;;;9.05;6.63;;;;;;;30.16;41.28;95579.78;5065299;28;20206;-63
2023/09/07 07:53:04;;;;;;;9.95;6.68;;;;;;;30.22;40.82;95582.56;5069799;28;20261;-64
2023/09/07 07:55:38;;;;;;;7.63;6.50;;;;;;;29.19;41.81;95587.88;5070100;28;20202;-64
2023/09/07 07:58:05;;;;;;;12.27;6.18;;;;;;;28.74;42.61;95579.13;5069091;28;20210;-63
2023/09/07 08:00:32;;;;;;;7.88;7.15;;;;;;;27.92;45.03;95581.84;5068528;28;20592;-65
2023/09/07 08:02:59;;;;;;;9.75;6.70;;;;;;;27.47;46.37;95602.56;5069304;28;20229;-65
2023/09/07 08:05:25;;;;;;;7.75;7.00;;;;;;;27.31;47.27;95591.91;5069615;28;20202;-64
2023/09/07 08:07:53;;;;;;;12.38;7.22;;;;;;;27.53;46.52;95586.34;5069075;28;20279;-64
2023/09/07 08:10:20;;;;;;;7.78;6.18;;;;;;;28.19;44.80;95581.00;5069060;28;20344;-64
2023/09/07 08:12:48;;;;;;;9.65;6.50;;;;;;;28.96;42.95;95572.63;5067809;28;20621;-65
2023/09/07 08:15:15;;;;;;;6.57;6.07;;;;;;;29.74;40.79;95575.31;5069454;28;20711;-64
2023/09/07 08:17:41;;;;;;;5.80;5.38;;;;;;;29.88;39.41;95576.53;5069198;28;20203;-65
2023/09/07 08:20:11;;;;;;;6.30;5.63;;;;;;;30.02;38.58;95576.78;5069032;28;20198;-65
2023/09/07 08:22:40;;;;;;;5.97;5.55;;;;;;;29.15;40.06;95584.75;5068998;28;20572;-64
2023/09/07 08:25:08;;;;;;;8.07;6.45;;;;;;;29.36;40.54;95579.16;5069262;28;20330;-65
2023/09/07 08:27:34;;;;;;;7.05;6.43;;;;;;;29.37;40.53;95567.72;5068495;28;20708;-64
2023/09/07 08:30:05;;;;;;;5.97;5.57;;;;;;;29.33;39.96;95574.22;5068820;28;20198;-65
2023/09/07 08:32:32;;;;;;;7.57;6.88;;;;;;;30.71;37.79;95565.16;5067646;28;20660;-65
2023/09/07 08:35:00;;;;;;;6.22;5.63;;;;;;;30.98;37.03;95564.03;5066389;28;20253;-66
2023/09/07 08:37:27;;;;;;;7.13;6.63;;;;;;;33.04;33.95;95565.56;5059454;28;20208;-65
2023/09/07 08:39:55;;;;;;;5.60;5.18;;;;;;;32.56;33.60;95561.47;5066392;28;20798;-66
2023/09/07 08:42:22;;;;;;;8.32;5.15;;;;;;;30.27;37.59;95569.00;5065882;28;20217;-66
2023/09/07 08:44:51;;;;;;;7.18;5.45;;;;;;;29.50;38.83;95554.22;5067527;28;20195;-65
2023/09/07 08:47:20;;;;;;;5.55;5.25;;;;;;;30.54;37.40;95565.28;5066250;28;20203;-64
2023/09/07 08:49:48;;;;;;;7.90;5.88;;;;;;;30.84;36.21;95569.13;5066490;28;20682;-64
2023/09/07 08:52:16;;;;;;;6.75;5.38;;;;;;;29.48;38.37;95557.00;5067420;28;20214;-64
2023/09/07 08:54:44;;;;;;;6.28;5.88;;;;;;;29.94;37.82;95563.63;5068287;28;20271;-65
2023/09/07 08:57:12;;;;;;;5.57;5.10;;;;;;;29.60;38.43;95560.19;5069055;28;20198;-64
2023/09/07 08:59:38;;;;;;;6.00;5.57;;;;;;;27.94;41.49;95560.78;5068206;28;20207;-64
2023/09/07 09:02:10;;;;;;;6.82;6.22;;;;;;;27.35;43.68;95564.56;5067689;28;20241;-64
2023/09/07 09:04:38;;;;;;;6.50;5.70;;;;;;;26.69;44.92;95569.69;5066901;28;20198;-64
2023/09/07 09:07:05;;;;;;;7.70;6.63;;;;;;;26.13;46.78;95557.25;5068807;28;20208;-64
2023/09/07 09:09:32;;;;;;;7.60;5.82;;;;;;;25.91;47.64;95557.47;5067994;28;20271;-64
2023/09/07 09:12:07;;;;;;;6.95;6.30;;;;;;;26.16;46.50;95562.22;5067045;28;20714;-65
2023/09/07 09:14:34;;;;;;;6.22;5.60;;;;;;;26.31;45.43;95560.06;5064974;28;20271;-65
2023/09/07 09:17:01;;;;;;;8.23;5.65;;;;;;;26.32;45.76;95562.53;5068961;28;20226;-65
2023/09/07 09:19:32;;;;;;;7.00;6.50;;;;;;;26.22;45.63;95533.00;5067784;28;20214;-66
2023/09/07 09:22:00;;;;;;;6.45;5.60;;;;;;;26.65;44.75;95560.50;5066602;28;20725;-67
2023/09/07 09:24:27;;;;;;;7.32;6.10;;;;;;;26.34;45.78;95551.97;5067019;28;20237;-66
2023/09/07 09:26:53;;;;;;;6.45;5.80;;;;;;;26.31;46.24;95552.25;5066769;28;20248;-66
2023/09/07 09:29:23;;;;;;;9.50;6.05;;;;;;;26.45;45.88;95545.81;5067952;28;20242;-66
2023/09/07 09:31:49;;;;;;;7.50;6.82;;;;;;;26.83;44.92;95545.81;5067757;28;21640;-66
2023/09/07 09:34:16;;;;;;;7.10;5.30;;;;;;;27.39;42.81;95542.44;5067058;28;20238;-65
2023/09/07 09:36:43;;;;;;;5.78;5.30;;;;;;;27.12;42.99;95537.16;5068166;28;20669;-67
2023/09/07 09:39:12;;;;;;;6.47;5.32;;;;;;;27.03;43.31;95542.22;5067532;28;20665;-67
2023/09/07 09:41:39;;;;;;;7.70;5.80;;;;;;;26.87;43.88;95539.34;5067040;28;20228;-65
2023/09/07 09:44:07;;;;;;;5.75;5.25;;;;;;;26.81;43.46;95531.25;5067775;28;20212;-67
2023/09/07 09:46:35;;;;;;;8.13;5.68;;;;;;;26.17;44.35;95547.41;5067681;28;20202;-66
2023/09/07 09:49:03;;;;;;;5.63;5.07;;;;;;;26.05;44.74;95541.47;5068157;28;20289;-66
2023/09/07 09:51:32;;;;;;;5.93;5.47;;;;;;;26.27;45.18;95532.59;5066881;28;20663;-65
2023/09/07 09:54:01;;;;;;;5.28;4.88;;;;;;;25.99;43.72;95534.19;5067378;28;20301;-65
2023/09/07 09:56:30;;;;;;;10.18;5.10;;;;;;;25.91;44.69;95534.03;5066229;28;20256;-65
2023/09/07 09:58:56;;;;;;;7.47;5.47;;;;;;;25.82;45.26;95527.00;5067913;28;20291;-66
2023/09/07 10:01:23;;;;;;;6.68;5.10;;;;;;;25.31;46.09;95527.88;5066783;28;20384;-66
2023/09/07 10:03:51;;;;;;;6.80;5.15;;;;;;;25.09;47.36;95524.50;5067528;28;20202;-66
2023/09/07 10:06:24;;;;;;;9.38;5.22;;;;;;;25.13;47.15;95519.88;5066981;28;20199;-66
2023/09/07 10:08:56;;;;;;;5.72;4.90;;;;;;;25.13;47.25;95526.84;5066951;28;20226;-66
2023/09/07 10:11:32;;;;;;;9.13;5.60;;;;;;;25.07;47.59;95523.78;5066342;28;20198;-66
2023/09/07 10:13:59;;;;;;;5.93;5.40;;;;;;;25.11;47.85;95515.75;5066249;28;20657;-65
2023/09/07 10:16:27;;;;;;;5.72;5.30;;;;;;;25.12;46.87;95522.59;5066533;28;20209;-65
2023/09/07 10:18:54;;;;;;;5.40;5.00;;;;;;;25.23;47.52;95527.72;5067072;28;20206;-65
2023/09/07 10:21:25;;;;;;;7.70;5.68;;;;;;;25.29;47.33;95520.22;5066129;28;20709;-64
2023/09/07 10:23:53;;;;;;;5.95;5.55;;;;;;;24.95;47.43;95517.03;5066011;28;20295;-67
2023/09/07 10:26:21;;;;;;;6.95;6.18;;;;;;;24.96;47.58;95515.25;5066752;28;20282;-65
2023/09/07 10:29:00;;;;;;;6.45;5.90;;;;;;;24.83;47.94;95510.22;5066685;28;20194;-66
2023/09/07 10:31:27;;;;;;;7.65;6.78;;;;;;;24.81;47.80;95512.09;5066652;28;20329;-66
2023/09/07 10:33:54;;;;;;;6.85;6.30;;;;;;;24.71;48.45;95519.03;5064876;28;20295;-65
2023/09/07 10:36:23;;;;;;;7.25;6.30;;;;;;;24.46;48.31;95488.22;5064962;28;20206;-65
2023/09/07 10:38:52;;;;;;;6.18;5.35;;;;;;;24.62;48.54;95511.97;5064911;28;20220;-66
2023/09/07 10:41:19;;;;;;;6.30;5.90;;;;;;;24.87;47.78;95508.19;5064449;28;20645;-67
2023/09/07 10:43:52;;;;;;;7.10;6.45;;;;;;;25.04;47.59;95500.63;5064328;28;20225;-64
2023/09/07 10:46:20;;;;;;;10.93;6.40;;;;;;;25.08;47.39;95516.81;5064315;28;20194;-65
2023/09/07 10:48:50;;;;;;;9.32;8.38;;;;;;;25.05;47.52;95512.69;5064708;28;20293;-66
2023/09/07 10:51:17;;;;;;;8.07;7.30;;;;;;;24.97;47.50;95512.53;5064436;28;20651;-66
2023/09/07 10:53:44;;;;;;;6.28;5.78;;;;;;;24.95;48.06;95521.41;5065986;28;20707;-66
2023/09/07 10:56:11;;;;;;;5.70;5.30;;;;;;;24.93;47.75;95507.69;5065877;28;20244;-67
2023/09/07 10:58:40;;;;;;;8.52;5.57;;;;;;;25.18;47.70;95511.69;5066065;28;20202;-66
2023/09/07 11:01:09;;;;;;;8.05;5.40;;;;;;;25.55;46.98;95512.78;5065661;28;20234;-67
2023/09/07 11:03:37;;;;;;;6.57;5.43;;;;;;;25.63;46.09;95499.97;5065297;28;20207;-66
2023/09/07 11:06:07;;;;;;;6.90;6.00;;;;;;;25.55;46.96;95510.19;5066009;28;20281;-65
2023/09/07 11:08:34;;;;;;;8.60;6.15;;;;;;;25.69;46.31;95502.06;5066289;28;20202;-65
2023/09/07 11:11:01;;;;;;;5.97;5.32;;;;;;;25.56;46.21;95487.59;5065843;28;20293;-65
2023/09/07 11:13:28;;;;;;;9.05;5.18;;;;;;;25.81;46.07;95507.16;5065934;28;20675;-65
2023/09/07 11:15:55;;;;;;;4.43;4.03;;;;;;;25.79;45.48;95501.25;5065551;28;20712;-65
2023/09/07 11:18:24;;;;;;;7.32;5.13;;;;;;;25.50;47.00;95499.34;5066545;28;20201;-65
2023/09/07 11:20:52;;;;;;;4.82;4.32;;;;;;;25.45;47.02;95492.91;5066531;28;20210;-65
2023/09/07 11:23:20;;;;;;;5.30;4.60;;;;;;;25.63;46.29;95505.19;5065945;28;20198;-65
2023/09/07 11:25:48;;;;;;;4.97;4.40;;;;;;;25.52;46.99;95505.25;5065429;28;20206;-64